createdAt,value
2023-06-08T00:00:27.111Z,2.78
2023-06-08T00:02:30.972Z,2.75
2023-06-08T00:04:34.480Z,2.92
2023-06-08T00:06:38.539Z,2.42
2023-06-08T00:08:41.882Z,2.97
2023-06-08T00:10:44.950Z,2.95
2023-06-08T00:12:47.680Z,2.72
2023-06-08T00:14:51.850Z,2.80
2023-06-08T00:16:54.412Z,2.60
2023-06-08T00:18:57.935Z,2.55
2023-06-08T00:21:01.757Z,2.63
2023-06-08T00:23:06.080Z,2.70
2023-06-08T00:25:09.100Z,2.70
2023-06-08T00:27:11.774Z,2.88
2023-06-08T00:29:14.448Z,2.80
2023-06-08T00:31:18.923Z,2.80
2023-06-08T00:33:21.874Z,2.70
2023-06-08T00:35:24.468Z,2.55
2023-06-08T00:37:27.109Z,2.83
2023-06-08T00:39:29.784Z,2.88
2023-06-08T00:41:32.436Z,2.60
2023-06-08T00:43:35.130Z,3.25
2023-06-08T00:45:37.825Z,3.17
2023-06-08T00:47:42.206Z,2.72
2023-06-08T00:49:45.822Z,2.95
2023-06-08T00:51:48.793Z,2.80
2023-06-08T00:53:52.224Z,2.78
2023-06-08T00:55:55.521Z,2.63
2023-06-08T00:57:58.300Z,3.00
2023-06-08T01:00:08.869Z,2.78
2023-06-08T01:02:11.730Z,2.88
2023-06-08T01:04:16.241Z,2.95
2023-06-08T01:06:22.146Z,2.97
2023-06-08T01:08:28.978Z,3.00
2023-06-08T01:10:36.377Z,2.90
2023-06-08T01:12:43.024Z,3.00
2023-06-08T01:14:51.543Z,2.55
2023-06-08T01:16:57.096Z,2.60
2023-06-08T01:19:02.412Z,2.70
2023-06-08T01:21:12.198Z,3.13
2023-06-08T01:23:26.916Z,2.90
2023-06-08T01:25:31.836Z,2.80
2023-06-08T01:27:38.064Z,3.00
2023-06-08T01:29:42.969Z,3.10
2023-06-08T01:31:45.759Z,2.67
2023-06-08T01:33:48.476Z,3.08
2023-06-08T01:35:57.068Z,2.55
2023-06-08T01:38:03.197Z,2.92
2023-06-08T01:40:08.264Z,3.00
2023-06-08T01:42:14.060Z,3.00
2023-06-08T01:44:18.447Z,2.88
2023-06-08T01:46:22.769Z,2.72
2023-06-08T01:48:26.878Z,3.00
2023-06-08T01:50:30.461Z,2.67
2023-06-08T01:52:33.142Z,2.90
2023-06-08T01:54:35.949Z,2.80
2023-06-08T01:56:39.167Z,3.00
2023-06-08T01:58:43.108Z,2.97
2023-06-08T02:00:45.814Z,3.10
2023-06-08T02:02:48.800Z,2.60
2023-06-08T02:04:51.525Z,2.70
2023-06-08T02:06:54.110Z,2.97
2023-06-08T02:08:56.982Z,2.67
2023-06-08T02:10:59.643Z,2.80
2023-06-08T02:13:02.353Z,2.75
2023-06-08T02:15:07.267Z,2.83
2023-06-08T02:17:10.052Z,2.92
2023-06-08T02:19:15.272Z,3.03
2023-06-08T02:21:18.076Z,3.35
2023-06-08T02:23:20.678Z,3.20
2023-06-08T02:25:23.258Z,2.53
2023-06-08T02:27:26.138Z,3.05
2023-06-08T02:29:29.114Z,2.92
2023-06-08T02:31:33.829Z,2.70
2023-06-08T02:33:36.504Z,2.85
2023-06-08T02:35:40.150Z,2.92
2023-06-08T02:37:43.795Z,2.80
2023-06-08T02:39:46.509Z,3.10
2023-06-08T02:41:49.179Z,2.85
2023-06-08T02:43:52.279Z,2.92
2023-06-08T02:45:55.271Z,2.65
2023-06-08T02:47:59.600Z,3.03
2023-06-08T02:50:02.301Z,2.90
2023-06-08T02:52:05.514Z,3.20
2023-06-08T02:54:08.207Z,2.83
2023-06-08T02:56:10.892Z,2.55
2023-06-08T02:58:15.173Z,3.03
2023-06-08T03:00:18.270Z,2.78
2023-06-08T03:02:21.217Z,2.78
2023-06-08T03:04:26.584Z,3.15
2023-06-08T03:06:34.197Z,2.90
2023-06-08T03:08:37.719Z,2.80
2023-06-08T03:10:40.490Z,2.92
2023-06-08T03:12:43.281Z,2.85
2023-06-08T03:14:46.251Z,2.80
2023-06-08T03:16:49.304Z,2.67
2023-06-08T03:18:52.206Z,3.08
2023-06-08T03:20:56.435Z,2.72
2023-06-08T03:22:59.389Z,3.20
2023-06-08T03:25:05.816Z,2.80
2023-06-08T03:27:08.652Z,3.10
2023-06-08T03:29:11.375Z,2.95
2023-06-08T03:31:14.055Z,2.65
2023-06-08T03:33:17.609Z,2.67
2023-06-08T03:35:20.396Z,2.83
2023-06-08T03:37:24.434Z,3.05
2023-06-08T03:39:27.044Z,3.10
2023-06-08T03:41:29.725Z,2.78
2023-06-08T03:43:32.415Z,3.28
2023-06-08T03:45:35.086Z,3.03
2023-06-08T03:47:37.928Z,2.95
2023-06-08T03:49:40.713Z,2.80
2023-06-08T03:51:43.405Z,3.08
2023-06-08T03:53:47.399Z,2.95
2023-06-08T03:55:50.025Z,2.55
2023-06-08T03:57:53.297Z,2.90
2023-06-08T03:59:55.987Z,2.90
2023-06-08T04:01:59.042Z,2.92
2023-06-08T04:04:01.885Z,2.90
2023-06-08T04:06:04.905Z,2.80
2023-06-08T04:08:07.591Z,3.10
2023-06-08T04:10:13.710Z,3.15
2023-06-08T04:12:16.627Z,2.80
2023-06-08T04:14:19.399Z,2.75
2023-06-08T04:16:22.125Z,3.00
2023-06-08T04:18:25.181Z,2.88
2023-06-08T04:20:27.977Z,2.60
2023-06-08T04:22:30.644Z,2.78
2023-06-08T04:24:34.919Z,2.63
2023-06-08T04:26:39.104Z,2.78
2023-06-08T04:28:43.114Z,2.75
2023-06-08T04:30:45.897Z,3.05
2023-06-08T04:32:48.610Z,3.28
2023-06-08T04:34:51.368Z,2.85
2023-06-08T04:36:53.951Z,5.20
2023-06-08T04:38:57.206Z,2.80
2023-06-08T04:41:02.773Z,4.35
2023-06-08T04:43:10.097Z,2.95
2023-06-08T04:45:13.708Z,3.33
2023-06-08T04:47:16.432Z,3.17
2023-06-08T04:49:19.193Z,2.70
2023-06-08T04:51:24.435Z,2.88
2023-06-08T04:53:27.035Z,3.17
2023-06-08T04:55:29.712Z,3.00
2023-06-08T04:57:32.360Z,3.00
2023-06-08T04:59:36.420Z,3.22
2023-06-08T05:01:40.061Z,3.10
2023-06-08T05:03:44.192Z,2.97
2023-06-08T05:05:46.960Z,2.95
2023-06-08T05:07:49.557Z,2.92
2023-06-08T05:09:52.184Z,3.00
2023-06-08T05:11:54.925Z,3.55
2023-06-08T05:13:57.578Z,3.30
2023-06-08T05:16:01.586Z,3.30
2023-06-08T05:18:04.669Z,3.28
2023-06-08T05:20:08.602Z,3.25
2023-06-08T05:22:11.328Z,3.47
2023-06-08T05:24:14.350Z,3.03
2023-06-08T05:26:17.106Z,3.35
2023-06-08T05:28:19.734Z,3.50
2023-06-08T05:30:22.664Z,3.30
2023-06-08T05:32:26.770Z,3.17
2023-06-08T05:34:29.400Z,3.53
2023-06-08T05:36:32.058Z,3.00
2023-06-08T05:38:34.851Z,3.30
2023-06-08T05:40:37.825Z,3.47
2023-06-08T05:42:40.546Z,3.13
2023-06-08T05:44:43.366Z,3.00
2023-06-08T05:46:46.122Z,3.25
2023-06-08T05:48:50.283Z,3.20
2023-06-08T05:50:53.020Z,3.47
2023-06-08T05:52:55.882Z,3.13
2023-06-08T05:54:58.525Z,3.63
2023-06-08T05:57:01.988Z,3.50
2023-06-08T05:59:04.722Z,3.55
2023-06-08T06:01:08.229Z,3.53
2023-06-08T06:03:11.118Z,3.50
2023-06-08T06:05:15.273Z,3.35
2023-06-08T06:07:18.080Z,3.63
2023-06-08T06:09:20.869Z,3.65
2023-06-08T06:11:23.581Z,3.40
2023-06-08T06:13:27.661Z,3.60
2023-06-08T06:15:30.868Z,3.65
2023-06-08T06:17:33.642Z,3.85
2023-06-08T06:19:38.132Z,3.50
2023-06-08T06:21:42.741Z,3.85
2023-06-08T06:23:45.851Z,3.92
2023-06-08T06:25:48.545Z,3.50
2023-06-08T06:27:51.299Z,3.60
2023-06-08T06:29:53.868Z,3.78
2023-06-08T06:31:56.629Z,3.63
2023-06-08T06:33:59.344Z,3.50
2023-06-08T06:36:01.999Z,3.80
2023-06-08T06:38:06.101Z,3.90
2023-06-08T06:40:10.294Z,3.80
2023-06-08T06:42:13.164Z,3.67
2023-06-08T06:44:15.876Z,3.83
2023-06-08T06:46:20.833Z,3.60
2023-06-08T06:48:26.032Z,4.15
2023-06-08T06:50:29.328Z,4.38
2023-06-08T06:52:32.255Z,4.30
2023-06-08T06:54:36.438Z,4.68
2023-06-08T06:56:39.219Z,4.90
2023-06-08T06:58:47.111Z,4.60
2023-06-08T07:00:50.732Z,4.55
2023-06-08T07:02:53.464Z,5.03
2023-06-08T07:04:56.810Z,4.85
2023-06-08T07:06:59.420Z,4.85
2023-06-08T07:09:06.263Z,5.50
2023-06-08T07:11:12.934Z,5.13
2023-06-08T07:13:16.072Z,4.75
2023-06-08T07:15:19.501Z,5.00
2023-06-08T07:17:22.176Z,5.20
2023-06-08T07:19:24.871Z,4.90
2023-06-08T07:23:55.037Z,4.95
2023-06-08T07:26:26.446Z,4.68
2023-06-08T07:28:22.400Z,5.35
2023-06-08T07:30:25.397Z,4.68
2023-06-08T07:32:29.371Z,4.57
2023-06-08T07:34:32.378Z,4.93
2023-06-08T07:36:36.750Z,5.00
2023-06-08T07:38:39.437Z,4.80
2023-06-08T07:40:42.168Z,4.93
2023-06-08T07:42:44.876Z,5.32
2023-06-08T07:44:50.136Z,5.00
2023-06-08T07:46:53.080Z,5.53
2023-06-08T07:48:55.989Z,5.07
2023-06-08T07:50:58.906Z,5.22
2023-06-08T07:53:01.706Z,4.80
2023-06-08T07:55:04.641Z,5.03
2023-06-08T07:57:07.739Z,5.18
2023-06-08T07:59:10.403Z,5.25
2023-06-08T08:01:14.482Z,5.18
2023-06-08T08:03:17.268Z,5.35
2023-06-08T08:05:20.247Z,5.38
2023-06-08T08:07:22.921Z,5.80
2023-06-08T08:09:25.679Z,5.38
2023-06-08T08:11:29.348Z,5.18
2023-06-08T08:13:31.971Z,5.30
2023-06-08T08:15:35.882Z,5.78
2023-06-08T08:17:40.193Z,5.95
2023-06-08T08:19:42.820Z,5.80
2023-06-08T08:21:45.465Z,5.47
2023-06-08T08:23:49.466Z,5.53
2023-06-08T08:25:52.182Z,4.60
2023-06-08T08:27:55.222Z,4.93
2023-06-08T08:29:57.847Z,5.75
2023-06-08T08:32:00.586Z,5.30
2023-06-08T08:34:04.709Z,5.43
2023-06-08T08:36:07.894Z,5.47
2023-06-08T08:38:10.460Z,5.60
2023-06-08T08:40:13.647Z,5.50
2023-06-08T08:42:20.457Z,6.25
2023-06-08T08:44:23.390Z,5.80
2023-06-08T08:46:26.415Z,5.43
2023-06-08T08:48:30.734Z,5.72
2023-06-08T08:50:37.938Z,5.75
2023-06-08T08:52:41.950Z,5.38
2023-06-08T08:54:44.999Z,5.95
2023-06-08T08:56:47.883Z,6.35
2023-06-08T08:58:52.087Z,6.05
2023-06-08T09:00:54.766Z,5.85
2023-06-08T09:02:57.547Z,5.70
2023-06-08T09:05:00.576Z,6.00
2023-06-08T09:07:04.781Z,5.78
2023-06-08T09:09:07.554Z,6.00
2023-06-08T09:13:21.525Z,5.72
2023-06-08T09:15:28.971Z,6.07
2023-06-08T09:17:38.997Z,5.65
2023-06-08T09:19:53.041Z,5.60
2023-06-08T09:21:56.207Z,5.40
2023-06-08T09:24:10.268Z,5.90
2023-06-08T09:26:14.654Z,5.72
2023-06-08T09:28:18.115Z,5.70
2023-06-08T09:30:24.094Z,5.63
2023-06-08T09:32:32.730Z,5.82
2023-06-08T09:34:50.304Z,6.07
2023-06-08T09:36:53.270Z,6.28
2023-06-08T09:38:58.262Z,5.90
2023-06-08T09:41:18.566Z,6.35
2023-06-08T09:43:42.375Z,6.22
2023-06-08T09:45:45.856Z,6.20
2023-06-08T09:47:48.730Z,6.15
2023-06-08T09:49:52.168Z,6.10
2023-06-08T09:51:58.968Z,7.70
2023-06-08T09:54:04.880Z,7.03
2023-06-08T09:56:09.551Z,6.30
2023-06-08T09:58:13.703Z,6.70
2023-06-08T10:00:20.396Z,6.88
2023-06-08T10:02:24.218Z,6.20
2023-06-08T10:04:30.697Z,7.03
2023-06-08T10:06:34.005Z,6.53
2023-06-08T10:08:39.161Z,6.55
2023-06-08T10:10:42.677Z,6.95
2023-06-08T10:12:45.971Z,6.30
2023-06-08T10:14:51.394Z,7.07
2023-06-08T10:16:54.595Z,6.90
2023-06-08T10:18:58.236Z,7.18
2023-06-08T10:21:02.898Z,6.55
2023-06-08T10:23:06.575Z,7.57
2023-06-08T10:25:10.036Z,6.97
2023-06-08T10:27:19.528Z,6.95
2023-06-08T10:29:28.555Z,6.78
2023-06-08T10:31:37.860Z,7.07
2023-06-08T10:33:41.518Z,7.35
2023-06-08T10:35:45.265Z,6.75
2023-06-08T10:37:47.999Z,6.60
2023-06-08T10:39:50.621Z,6.90
2023-06-08T10:41:55.560Z,6.13
2023-06-08T10:44:00.442Z,6.25
2023-06-08T10:46:04.705Z,6.95
2023-06-08T10:48:11.082Z,6.43
2023-06-08T10:50:13.837Z,6.78
2023-06-08T10:52:19.551Z,6.75
2023-06-08T10:54:22.665Z,6.00
2023-06-08T10:56:27.015Z,5.93
2023-06-08T10:58:29.733Z,6.13
2023-06-08T11:00:44.443Z,5.93
2023-06-08T11:02:47.692Z,5.85
2023-06-08T11:04:58.991Z,6.00
2023-06-08T11:07:03.461Z,5.65
2023-06-08T11:09:06.114Z,5.82
2023-06-08T11:11:09.100Z,6.25
2023-06-08T11:13:12.364Z,5.30
2023-06-08T11:15:15.057Z,5.72
2023-06-08T11:17:17.787Z,5.65
2023-06-08T11:19:20.778Z,5.88
2023-06-08T11:21:27.450Z,6.07
2023-06-08T11:23:34.182Z,5.65
2023-06-08T11:25:37.439Z,5.78
2023-06-08T11:27:46.469Z,5.40
2023-06-08T11:29:49.184Z,5.93
2023-06-08T11:31:51.954Z,6.03
2023-06-08T11:33:54.872Z,5.40
2023-06-08T11:35:57.613Z,6.22
2023-06-08T11:38:02.128Z,5.90
2023-06-08T11:40:12.372Z,5.78
2023-06-08T11:42:15.288Z,5.90
2023-06-08T11:44:17.956Z,6.03
2023-06-08T11:46:21.537Z,6.00
2023-06-08T11:48:24.943Z,5.68
2023-06-08T11:50:27.702Z,5.72
2023-06-08T11:52:34.936Z,5.88
2023-06-08T11:54:41.200Z,5.25
2023-06-08T11:56:46.721Z,5.50
2023-06-08T11:58:49.390Z,5.82
2023-06-08T12:00:52.194Z,5.07
2023-06-08T12:07:11.638Z,7.85
2023-06-08T12:09:14.428Z,5.38
2023-06-08T12:11:20.028Z,5.07
2023-06-08T12:13:24.740Z,6.70
2023-06-08T12:15:27.499Z,5.25
2023-06-08T12:17:30.582Z,4.78
2023-06-08T12:19:33.949Z,5.13
2023-06-08T12:21:41.092Z,5.28
2023-06-08T12:23:44.682Z,4.93
2023-06-08T12:25:47.755Z,5.50
2023-06-08T12:27:51.804Z,5.03
2023-06-08T12:29:55.120Z,4.47
2023-06-08T12:31:57.747Z,4.65
2023-06-08T12:34:00.530Z,4.47
2023-06-08T12:36:03.293Z,4.72
2023-06-08T12:38:05.947Z,4.70
2023-06-08T12:40:09.833Z,5.00
2023-06-08T12:42:12.515Z,4.90
2023-06-08T12:44:16.562Z,4.95
2023-06-08T12:46:20.839Z,4.85
2023-06-08T12:48:23.772Z,4.97
2023-06-08T12:50:30.325Z,4.93
2023-06-08T12:52:33.077Z,4.88
2023-06-08T12:54:35.953Z,4.90
2023-06-08T12:56:38.973Z,5.00
2023-06-08T12:58:41.590Z,5.00
2023-06-08T13:00:45.595Z,4.97
2023-06-08T13:02:48.409Z,5.10
2023-06-08T13:04:51.145Z,4.95
2023-06-08T13:06:54.273Z,5.70
2023-06-08T13:08:57.089Z,5.00
2023-06-08T13:10:59.754Z,4.97
2023-06-08T13:13:03.593Z,5.25
2023-06-08T13:15:10.294Z,4.85
2023-06-08T13:17:15.196Z,5.70
2023-06-08T13:19:18.108Z,5.10
2023-06-08T13:21:22.044Z,5.07
2023-06-08T13:23:25.645Z,5.18
2023-06-08T13:25:28.793Z,5.28
2023-06-08T13:27:31.574Z,5.03
2023-06-08T13:29:34.212Z,5.70
2023-06-08T13:31:36.896Z,5.20
2023-06-08T13:33:40.897Z,5.50
2023-06-08T13:35:44.959Z,5.45
2023-06-08T13:37:48.217Z,4.93
2023-06-08T13:39:51.289Z,5.35
2023-06-08T13:41:55.346Z,5.32
2023-06-08T13:43:59.317Z,5.10
2023-06-08T13:46:03.414Z,5.18
2023-06-08T13:48:06.441Z,5.10
2023-06-08T13:50:12.153Z,5.35
2023-06-08T13:52:15.438Z,5.40
2023-06-08T13:54:18.998Z,5.20
2023-06-08T13:56:21.831Z,5.57
2023-06-08T13:58:24.581Z,5.82
2023-06-08T14:00:28.781Z,5.30
2023-06-08T14:02:31.489Z,5.97
2023-06-08T14:04:34.155Z,5.25
2023-06-08T14:06:38.675Z,5.28
2023-06-08T14:08:41.267Z,6.25
2023-06-08T14:10:43.982Z,5.75
2023-06-08T14:12:47.256Z,5.45
2023-06-08T14:14:51.271Z,5.30
2023-06-08T14:16:54.149Z,5.68
2023-06-08T14:18:56.960Z,5.30
2023-06-08T14:20:59.744Z,5.63
2023-06-08T14:23:03.935Z,4.68
2023-06-08T14:25:07.080Z,5.07
2023-06-08T14:27:09.705Z,4.97
2023-06-08T14:29:12.504Z,4.82
2023-06-08T14:31:15.379Z,4.53
2023-06-08T14:33:17.992Z,5.05
2023-06-08T14:35:20.870Z,5.00
2023-06-08T14:37:23.598Z,5.22
2023-06-08T14:39:27.703Z,4.70
2023-06-08T14:41:30.369Z,5.47
2023-06-08T14:43:33.014Z,5.03
2023-06-08T14:45:37.181Z,4.93
2023-06-08T14:47:40.319Z,4.70
2023-06-08T14:49:42.902Z,5.20
2023-06-08T14:51:45.585Z,4.95
2023-06-08T14:53:48.211Z,4.75
2023-06-08T14:55:52.279Z,5.30
2023-06-08T14:57:54.910Z,4.30
2023-06-08T14:59:57.554Z,4.28
2023-06-08T15:02:00.376Z,4.50
2023-06-08T15:04:03.099Z,4.60
2023-06-08T15:06:06.031Z,4.75
2023-06-08T15:08:08.738Z,5.00
2023-06-08T15:10:11.883Z,4.75
2023-06-08T15:12:16.007Z,4.82
2023-06-08T15:14:18.650Z,4.38
2023-06-08T15:16:21.344Z,4.22
2023-06-08T15:18:24.109Z,4.20
2023-06-08T15:20:26.887Z,4.60
2023-06-08T15:22:29.606Z,5.00
2023-06-08T15:24:32.343Z,4.60
2023-06-08T15:26:34.951Z,4.95
2023-06-08T15:28:39.045Z,4.55
2023-06-08T15:30:41.850Z,4.88
2023-06-08T15:32:44.810Z,4.47
2023-06-08T15:34:47.572Z,4.40
2023-06-08T15:36:50.300Z,4.28
2023-06-08T15:38:53.086Z,4.18
2023-06-08T15:41:01.920Z,4.68
2023-06-08T15:43:06.485Z,4.65
2023-06-08T15:45:11.364Z,4.32
2023-06-08T15:47:14.337Z,4.47
2023-06-08T15:49:17.254Z,4.43
2023-06-08T15:51:19.918Z,4.43
2023-06-08T15:53:22.532Z,4.25
2023-06-08T15:55:25.190Z,4.75
2023-06-08T15:57:28.047Z,4.50
2023-06-08T15:59:31.126Z,4.85
2023-06-08T16:01:35.314Z,4.50
2023-06-08T16:03:38.356Z,4.07
2023-06-08T16:05:41.525Z,4.22
2023-06-08T16:07:44.163Z,4.40
2023-06-08T16:09:46.886Z,4.30
2023-06-08T16:11:49.490Z,4.20
2023-06-08T16:13:52.965Z,4.10
2023-06-08T16:15:55.672Z,4.57
2023-06-08T16:17:59.760Z,4.47
2023-06-08T16:20:02.647Z,4.57
2023-06-08T16:22:05.705Z,4.40
2023-06-08T16:24:21.193Z,4.57
2023-06-08T16:26:24.128Z,4.70
2023-06-08T16:28:26.740Z,4.45
2023-06-08T16:30:31.473Z,4.45
2023-06-08T16:32:34.192Z,4.75
2023-06-08T16:34:38.580Z,4.57
2023-06-08T16:36:41.255Z,4.47
2023-06-08T16:38:46.067Z,4.70
2023-06-08T16:40:48.999Z,4.43
2023-06-08T16:42:51.712Z,4.47
2023-06-08T16:44:54.468Z,4.78
2023-06-08T16:46:57.099Z,4.63
2023-06-08T16:48:59.907Z,4.60
2023-06-08T16:51:06.824Z,4.40
2023-06-08T16:53:09.641Z,4.28
2023-06-08T16:55:12.436Z,4.40
2023-06-08T16:57:15.155Z,4.32
2023-06-08T16:59:17.861Z,4.72
2023-06-08T17:01:20.564Z,4.40
2023-06-08T17:03:23.228Z,4.38
2023-06-08T17:05:25.885Z,4.65
2023-06-08T17:07:30.183Z,4.70
2023-06-08T17:09:32.924Z,4.10
2023-06-08T17:11:35.597Z,4.20
2023-06-08T17:13:40.233Z,3.90
2023-06-08T17:15:43.541Z,4.15
2023-06-08T17:17:46.432Z,4.00
2023-06-08T17:19:50.063Z,4.32
2023-06-08T17:21:52.774Z,4.65
2023-06-08T17:23:58.319Z,4.18
2023-06-08T17:26:00.991Z,4.43
2023-06-08T17:28:03.755Z,4.40
2023-06-08T17:30:07.523Z,4.30
2023-06-08T17:32:10.849Z,4.68
2023-06-08T17:34:14.724Z,4.30
2023-06-08T17:36:17.427Z,4.45
2023-06-08T17:38:20.279Z,4.00
2023-06-08T17:40:24.575Z,4.45
2023-06-08T17:42:27.253Z,4.25
2023-06-08T17:44:29.923Z,3.80
2023-06-08T17:46:32.588Z,4.00
2023-06-08T17:48:35.229Z,4.28
2023-06-08T17:50:37.956Z,4.38
2023-06-08T17:52:58.423Z,4.18
2023-06-08T17:55:01.357Z,4.78
2023-06-08T17:57:06.118Z,4.65
2023-06-08T17:59:08.970Z,4.43
2023-06-08T18:01:11.588Z,3.92
2023-06-08T18:03:14.251Z,4.25
2023-06-08T18:05:17.118Z,4.20
2023-06-08T18:07:19.719Z,4.53
2023-06-08T18:09:23.876Z,4.25
2023-06-08T18:11:26.880Z,4.25
2023-06-08T18:13:30.995Z,4.50
2023-06-08T18:15:33.806Z,4.07
2023-06-08T18:17:37.306Z,4.30
2023-06-08T18:19:40.061Z,3.97
2023-06-08T18:21:42.776Z,4.38
2023-06-08T18:23:45.592Z,4.10
2023-06-08T18:25:49.054Z,4.03
2023-06-08T18:27:51.754Z,4.47
2023-06-08T18:29:56.038Z,4.20
2023-06-08T18:31:58.739Z,4.47
2023-06-08T18:34:01.569Z,4.80
2023-06-08T18:36:06.171Z,4.40
2023-06-08T18:38:11.329Z,3.53
2023-06-08T18:40:14.514Z,4.13
2023-06-08T18:42:17.429Z,4.07
2023-06-08T18:44:20.178Z,4.28
2023-06-08T18:46:24.595Z,4.20
2023-06-08T18:48:27.567Z,4.28
2023-06-08T18:50:30.260Z,3.88
2023-06-08T18:52:34.294Z,4.00
2023-06-08T18:54:37.062Z,3.83
2023-06-08T18:56:39.830Z,3.97
2023-06-08T18:58:44.195Z,3.72
2023-06-08T19:00:47.036Z,4.15
2023-06-08T19:02:51.450Z,3.85
2023-06-08T19:04:54.402Z,3.90
2023-06-08T19:06:57.221Z,3.75
2023-06-08T19:09:00.044Z,3.90
2023-06-08T19:11:02.635Z,4.07
2023-06-08T19:13:05.458Z,3.83
2023-06-08T19:15:10.135Z,3.80
2023-06-08T19:17:12.873Z,3.78
2023-06-08T19:19:17.910Z,4.28
2023-06-08T19:21:21.181Z,4.80
2023-06-08T19:23:23.826Z,3.75
2023-06-08T19:25:26.505Z,3.92
2023-06-08T19:27:29.163Z,4.28
2023-06-08T19:29:32.015Z,4.80
2023-06-08T19:31:34.735Z,4.00
2023-06-08T19:33:37.399Z,4.47
2023-06-08T19:35:41.669Z,4.80
2023-06-08T19:37:44.556Z,4.90
2023-06-08T19:39:47.240Z,5.05
2023-06-08T19:41:52.814Z,5.40
2023-06-08T19:43:55.708Z,4.63
2023-06-08T19:45:59.024Z,4.20
2023-06-08T19:48:01.791Z,4.65
2023-06-08T19:50:04.686Z,4.30
2023-06-08T19:52:10.377Z,4.70
2023-06-08T19:54:16.525Z,4.53
2023-06-08T19:56:20.358Z,4.32
2023-06-08T19:58:23.676Z,4.28
2023-06-08T20:00:26.950Z,4.55
2023-06-08T20:02:29.797Z,4.10
2023-06-08T20:04:32.493Z,4.40
2023-06-08T20:06:37.090Z,3.80
2023-06-08T20:08:41.093Z,4.00
2023-06-08T20:10:43.929Z,4.70
2023-06-08T20:12:46.726Z,4.28
2023-06-08T20:14:49.476Z,3.75
2023-06-08T20:16:53.462Z,4.45
2023-06-08T20:18:56.893Z,4.70
2023-06-08T20:20:59.857Z,3.40
2023-06-08T20:23:04.001Z,3.72
2023-06-08T20:25:09.169Z,4.55
2023-06-08T20:27:14.738Z,4.00
2023-06-08T20:29:18.092Z,3.92
2023-06-08T20:31:20.726Z,4.18
2023-06-08T20:33:23.351Z,3.90
2023-06-08T20:35:26.445Z,3.78
2023-06-08T20:37:29.673Z,4.10
2023-06-08T20:39:32.492Z,4.13
2023-06-08T20:41:36.855Z,4.07
2023-06-08T20:43:39.628Z,4.32
2023-06-08T20:45:43.097Z,4.20
2023-06-08T20:47:46.572Z,4.25
2023-06-08T20:49:49.268Z,4.30
2023-06-08T20:51:52.085Z,4.82
2023-06-08T20:53:54.974Z,3.90
2023-06-08T20:55:57.628Z,4.10
2023-06-08T20:58:01.716Z,4.55
2023-06-08T21:00:07.716Z,3.85
2023-06-08T21:02:11.009Z,4.18
2023-06-08T21:04:14.690Z,4.43
2023-06-08T21:06:17.734Z,3.80
2023-06-08T21:08:20.663Z,4.10
2023-06-08T21:10:23.826Z,4.30
2023-06-08T21:12:26.842Z,4.32
2023-06-08T21:14:31.105Z,4.25
2023-06-08T21:16:33.821Z,4.07
2023-06-08T21:18:36.498Z,4.20
2023-06-08T21:20:39.888Z,4.35
2023-06-08T21:22:42.955Z,4.25
2023-06-08T21:24:45.760Z,4.03
2023-06-08T21:26:48.487Z,4.45
2023-06-08T21:28:51.144Z,4.15
2023-06-08T21:30:55.300Z,4.20
2023-06-08T21:32:58.238Z,4.22
2023-06-08T21:35:00.983Z,4.65
2023-06-08T21:37:03.702Z,4.43
2023-06-08T21:39:06.473Z,4.50
2023-06-08T21:41:09.264Z,4.28
2023-06-08T21:43:11.924Z,4.22
2023-06-08T21:45:14.513Z,4.40
2023-06-08T21:47:19.759Z,4.30
2023-06-08T21:49:22.893Z,4.50
2023-06-08T21:51:25.567Z,4.50
2023-06-08T21:53:29.471Z,4.68
2023-06-08T21:55:32.332Z,4.47
2023-06-08T21:57:35.100Z,4.43
2023-06-08T21:59:37.805Z,4.45
2023-06-08T22:01:40.884Z,4.88
2023-06-08T22:03:45.378Z,4.35
2023-06-08T22:05:48.074Z,4.38
2023-06-08T22:07:50.786Z,4.65
2023-06-08T22:09:53.372Z,4.47
2023-06-08T22:11:56.132Z,4.53
2023-06-08T22:13:59.486Z,4.80
2023-06-08T22:16:02.309Z,4.72
2023-06-08T22:18:07.160Z,4.60
2023-06-08T22:20:12.677Z,4.35
2023-06-08T22:22:15.682Z,4.32
2023-06-08T22:24:18.655Z,4.22
2023-06-08T22:26:21.418Z,4.63
2023-06-08T22:28:25.718Z,4.50
2023-06-08T22:30:28.374Z,4.50
2023-06-08T22:32:31.130Z,4.30
2023-06-08T22:34:33.890Z,4.57
2023-06-08T22:36:39.221Z,4.53
2023-06-08T22:38:41.877Z,4.28
2023-06-08T22:40:44.868Z,4.20
2023-06-08T22:42:48.244Z,4.57
2023-06-08T22:44:51.366Z,4.60
2023-06-08T22:46:55.406Z,4.40
2023-06-08T22:48:58.769Z,4.45
2023-06-08T22:51:01.668Z,4.55
2023-06-08T22:53:05.742Z,4.25
2023-06-08T22:55:09.345Z,4.63
2023-06-08T22:57:12.914Z,4.45
2023-06-08T22:59:15.654Z,4.32
2023-06-08T23:01:20.035Z,4.35
2023-06-08T23:03:23.495Z,4.22
2023-06-08T23:05:26.312Z,4.85
2023-06-08T23:07:28.904Z,4.57
2023-06-08T23:09:33.134Z,4.10
2023-06-08T23:11:36.097Z,4.50
2023-06-08T23:13:38.920Z,4.50
2023-06-08T23:15:41.696Z,4.28
2023-06-08T23:17:45.086Z,4.30
2023-06-08T23:19:49.572Z,4.18
2023-06-08T23:21:54.485Z,4.32
2023-06-08T23:23:57.992Z,4.72
2023-06-08T23:26:02.328Z,4.30
2023-06-08T23:28:05.479Z,4.70
2023-06-08T23:30:08.966Z,4.18
2023-06-08T23:32:11.709Z,4.50
2023-06-08T23:34:14.411Z,4.38
2023-06-08T23:36:17.167Z,4.30
2023-06-08T23:38:19.898Z,4.55
2023-06-08T23:40:22.766Z,4.72
2023-06-08T23:42:26.798Z,4.20
2023-06-08T23:44:29.588Z,4.70
2023-06-08T23:46:33.893Z,4.50
2023-06-08T23:48:37.248Z,4.50
2023-06-08T23:50:40.067Z,4.40
2023-06-08T23:52:43.264Z,4.43
2023-06-08T23:54:46.308Z,4.43
2023-06-08T23:56:49.044Z,4.70
2023-06-08T23:58:53.032Z,4.35
